WetterOnline ( https://www.wetteronline.de )

Wetter aktuell Itzehoe

Aktuelles Wetter: Itzehoe (26m)

6-stündlich | Neueste Meldungen
Ortszeit Temperatur Wetter
Mo, 16.09. 8:00 7.4° C fast wolkenlos
Mo, 16.09. 2:00 9.4° C wolkenlos
So, 15.09. 20:00 15.0° C bedeckt
So, 15.09. 14:00 17.3° C Regen
So, 15.09. 8:00 12.6° C wolkig
So, 15.09. 2:00 11.3° C wolkig
Sa, 14.09. 20:00 12.7° C wolkig
Sa, 14.09. 14:00 16.8° C leicht bewölkt
Ortszeit Temperatur Wetter
Mo, 16.09. 13:30 15.4° C bewölkt
Mo, 16.09. 13:20 15.4° C bewölkt
Mo, 16.09. 13:10 15.8° C bewölkt
Mo, 16.09. 13:00 14.9° C bewölkt
Mo, 16.09. 12:50 14.9° C bewölkt
Mo, 16.09. 12:40 15.2° C bewölkt
Mo, 16.09. 12:30 14.2° C bewölkt
Mo, 16.09. 12:00 15.7° C wolkig
Mo, 16.09. 11:30 15.8° C leicht bewölkt
Mo, 16.09. 11:00 14.9° C bedeckt
Mo, 16.09. 10:30 15.7° C bedeckt
Ortszeit Relative Feuchte Sichtweite
Mo, 16.09. 8:00 97% 16 km
Mo, 16.09. 2:00 91% 17 km
So, 15.09. 20:00 75% 26 km
So, 15.09. 14:00 93% 2.3 km
So, 15.09. 8:00 72% 50 km
So, 15.09. 2:00 85% 29 km
Sa, 14.09. 20:00 84% 55 km
Sa, 14.09. 14:00 55% 50 km
Ortszeit Relative Feuchte Sichtweite
Mo, 16.09. 13:30 66% 30 km
Mo, 16.09. 13:20 66% -
Mo, 16.09. 13:10 67% -
Mo, 16.09. 13:00 70% 35 km
Mo, 16.09. 12:50 70% -
Mo, 16.09. 12:40 69% -
Mo, 16.09. 12:30 73% 30 km
Mo, 16.09. 12:00 64% 30 km
Mo, 16.09. 11:30 65% 30 km
Mo, 16.09. 11:00 73% 30 km
Mo, 16.09. 10:30 71% 27 km
Ortszeit Niederschlagsmenge Niederschlagsart
Mo, 16.09. 8:00 0.0 l/m2 in 12 Std. -
Mo, 16.09. 2:00 0.0 l/m2 in 6 Std. -
So, 15.09. 20:00 2 l/m2 in 12 Std. Regen
So, 15.09. 14:00 0.6 l/m2 in 6 Std. Regen
So, 15.09. 8:00 0.0 l/m2 in 12 Std. -
So, 15.09. 2:00 0.0 l/m2 in 6 Std. -
Sa, 14.09. 20:00 0.0 l/m2 in 12 Std. -
Sa, 14.09. 14:00 0.0 l/m2 in 6 Std. -
Ortszeit Niederschlagsmenge Niederschlagsart
Mo, 16.09. 13:30 0.0 l/m2 in 1 Std. -
Mo, 16.09. 13:20 keine Meldung -
Mo, 16.09. 13:10 keine Meldung -
Mo, 16.09. 13:00 0.1 l/m2 in 1 Std. Regen
Mo, 16.09. 12:50 keine Meldung -
Mo, 16.09. 12:40 keine Meldung -
Mo, 16.09. 12:30 0.1 l/m2 in 1 Std. Schneeregen
Mo, 16.09. 12:00 0.0 l/m2 in 1 Std. -
Mo, 16.09. 11:30 0.0 l/m2 in 1 Std. -
Mo, 16.09. 11:00 0.0 l/m2 in 1 Std. -
Mo, 16.09. 10:30 0.0 l/m2 in 1 Std. -
Ortszeit Stärke Spitze Richtung
km/h Bft. km/h Grad Sektor
Mo, 16.09. 8:00 4 1 7 210° SW
Mo, 16.09. 2:00 0 0 22 - -
So, 15.09. 20:00 6 1 39 280° W
So, 15.09. 14:00 15 3 35 250° W
So, 15.09. 8:00 14 3 29 240° SW
So, 15.09. 2:00 6 1 9 230° SW
Sa, 14.09. 20:00 0 0 22 - -
Sa, 14.09. 14:00 7 2 22 250° W
Ortszeit Stärke Spitze Richtung
km/h Bft. km/h Grad Sektor
Mo, 16.09. 13:30 19 3 33 330° NW
Mo, 16.09. 13:20 19 3 - 330° NW
Mo, 16.09. 13:10 14 3 - 320° NW
Mo, 16.09. 13:00 17 3 30 330° NW
Mo, 16.09. 12:50 17 3 - 330° NW
Mo, 16.09. 12:40 14 3 - 330° NW
Mo, 16.09. 12:30 14 3 29 330° NW
Mo, 16.09. 12:00 11 2 25 280° W
Mo, 16.09. 11:30 7 2 22 300° NW
Mo, 16.09. 11:00 15 3 33 330° NW
Mo, 16.09. 10:30 6 1 19 290° W
Ortszeit Untergrenze Bedeckung Gattung
total tief tief mittel hoch
Mo, 16.09. 8:00 7800 m 2/8 0/8 - - -
Mo, 16.09. 2:00 - 0/8 0/8 - - -
So, 15.09. 20:00 3900 m 8/8 8/8 - - -
So, 15.09. 14:00 240 m 7/8 7/8 - - -
So, 15.09. 8:00 9000 m 8/8 0/8 - - -
So, 15.09. 2:00 10500 m 7/8 0/8 - - -
Sa, 14.09. 20:00 9000 m 7/8 0/8 - - -
Sa, 14.09. 14:00 1320 m 3/8 5/8 - - -
Ortszeit Bedeckungsgrad in Achtel und Wolkenuntergrenze
Mo, 16.09. 13:30 2(960m) 7(1500m) 8(7200m)
Mo, 16.09. 13:20 2(960m) 7(1500m) 8(7200m)
Mo, 16.09. 13:10 1(840m) 7(1800m) 8(7200m)
Mo, 16.09. 13:00 1(780m) 7(1500m) 7(7500m)
Mo, 16.09. 12:50 1(780m) 7(1500m) 7(7500m)
Mo, 16.09. 12:40 1(840m) 6(1500m) 7(7500m)
Mo, 16.09. 12:30 2(900m) 7(1500m) 7(7500m)
Mo, 16.09. 12:00 1(990m) 7(7800m) 7(10500m)
Mo, 16.09. 11:30 1(1500m) 4(7200m) 5(10500m)
Mo, 16.09. 11:00 1(750m) 6(1380m) 8(1500m)
Mo, 16.09. 10:30 5(1470m) 8(1800m) 8(1800m)
Ortszeit Luftdruck NN (hPa) Tendenz (hPa in 3 Std.)
Mo, 16.09. 8:00 1019 - 0,5
Mo, 16.09. 2:00 1020 0,0
So, 15.09. 20:00 1019 + 0,4
So, 15.09. 14:00 1018 - 0,1
So, 15.09. 8:00 1019 - 2,5
So, 15.09. 2:00 1025 - 2,8
Sa, 14.09. 20:00 1030 - 1,6
Sa, 14.09. 14:00 1033 - 1,3
Ortszeit Luftdruck NN (hPa) Tendenz (hPa in 3 Std.)
Mo, 16.09. 13:30 1019 0,0
Mo, 16.09. 13:20 1019 keine Meldung
Mo, 16.09. 13:10 1019 keine Meldung
Mo, 16.09. 13:00 1019 0,0
Mo, 16.09. 12:50 1019 keine Meldung
Mo, 16.09. 12:40 1019 keine Meldung
Mo, 16.09. 12:30 1019 + 0,1
Mo, 16.09. 12:00 1018 - 0,4
Mo, 16.09. 11:30 1019 + 0,1
Mo, 16.09. 11:00 1019 + 0,2
Mo, 16.09. 10:30 1019 + 0,5
Ortszeit Schneehöhe (cm)
Mo, 16.09. 8:00 -
Mo, 16.09. 2:00 -
So, 15.09. 20:00 -
So, 15.09. 14:00 -
So, 15.09. 8:00 -
So, 15.09. 2:00 -
Sa, 14.09. 20:00 -
Sa, 14.09. 14:00 -
Ortszeit Schneehöhe (cm)
Mo, 16.09. 13:30 -
Mo, 16.09. 13:20 -
Mo, 16.09. 13:10 -
Mo, 16.09. 13:00 -
Mo, 16.09. 12:50 -
Mo, 16.09. 12:40 -
Mo, 16.09. 12:30 -
Mo, 16.09. 12:00 -
Mo, 16.09. 11:30 -
Mo, 16.09. 11:00 -
Mo, 16.09. 10:30 -
Link zu dieser Seite / Seite empfehlen

Das Wetter in ...